Time;durP1;ratioP1;P1;durP2;ratioP2;P2;SDS_P1;SDS_P2;PMS_P1;PMS_P2;Temp;Humidity;BMP_temperature;BMP_pressure;BME280_temperature;BME280_humidity;BME280_pressure;Samples;Min_cycle;Max_cycle;Signal;HPM_P1;HPM_P2
2022/01/10 00:00:46;;;;;;;;;6.00;4.80;;;;;;;;5294681;27;8801;-72
2022/01/10 00:03:35;;;;;;;;;4.40;4.40;;;;;;;;5297784;27;9548;-75
2022/01/10 00:06:06;;;;;;;;;3.00;3.00;;;;;;;;5277632;27;8817;-74
2022/01/10 00:08:37;;;;;;;;;5.20;5.20;;;;;;;;5294834;27;8774;-74
2022/01/10 00:11:27;;;;;;;;;3.80;3.80;;;;;;;;5297568;27;8762;-73
2022/01/10 00:13:58;;;;;;;;;2.50;2.50;;;;;;;;5294518;27;8805;-75
2022/01/10 00:16:48;;;;;;;;;6.20;6.20;;;;;;;;5297213;27;8766;-73
2022/01/10 00:19:19;;;;;;;;;6.25;5.75;;;;;;;;5312785;27;8781;-72
2022/01/10 00:21:50;;;;;;;;;4.00;4.00;;;;;;;;5260892;27;9914;-72
2022/01/10 00:24:39;;;;;;;;;6.20;6.20;;;;;;;;5294997;27;8886;-75
2022/01/10 00:27:10;;;;;;;;;6.60;6.60;;;;;;;;5294354;27;8801;-75
2022/01/10 00:29:41;;;;;;;;;3.80;3.80;;;;;;;;5277423;27;8778;-76
2022/01/10 00:32:12;;;;;;;;;4.80;3.40;;;;;;;;5277370;27;8790;-74
2022/01/10 00:34:43;;;;;;;;;4.00;4.00;;;;;;;;5294537;27;9500;-75
2022/01/10 00:37:14;;;;;;;;;3.80;3.80;;;;;;;;5260138;27;8778;-77
2022/01/10 00:39:48;;;;;;;;;0.00;0.00;;;;;;;;5261120;27;8830;-76
2022/01/10 00:42:19;;;;;;;;;1.80;1.80;;;;;;;;5277497;27;10761;-77
2022/01/10 00:44:51;;;;;;;;;3.80;3.80;;;;;;;;5294183;27;8798;-78
2022/01/10 00:47:22;;;;;;;;;1.00;1.00;;;;;;;;5294531;27;8762;-73
2022/01/10 00:49:52;;;;;;;;;3.00;3.00;;;;;;;;5312590;27;8867;-73
2022/01/10 00:52:23;;;;;;;;;3.20;3.20;;;;;;;;5276674;27;8814;-74
2022/01/10 00:54:54;;;;;;;;;3.00;3.00;;;;;;;;5293725;27;8778;-74
2022/01/10 00:57:25;;;;;;;;;4.80;3.60;;;;;;;;5276708;27;11336;-73
2022/01/10 00:59:56;;;;;;;;;2.50;1.00;;;;;;;;5312181;27;9643;-73
2022/01/10 01:02:31;;;;;;;;;5.20;5.20;;;;;;;;5277582;27;9488;-74
2022/01/10 01:05:05;;;;;;;;;3.80;3.80;;;;;;;;5278336;27;8754;-74
2022/01/10 01:07:37;;;;;;;;;6.00;5.60;;;;;;;;5295055;27;8924;-73
2022/01/10 01:16:10;;;;;;;;;6.80;6.80;;;;;;;;5279528;27;9525;-73
2022/01/10 01:24:07;;;;;;;;;2.60;2.60;;;;;;;;5293531;27;9463;-72
2022/01/10 01:26:42;;;;;;;;;3.00;3.00;;;;;;;;5293038;27;8809;-74
2022/01/10 01:29:18;;;;;;;;;2.20;2.20;;;;;;;;5276179;27;9481;-72
2022/01/10 01:31:49;;;;;;;;;3.00;3.00;;;;;;;;5276181;27;8774;-75
2022/01/10 01:34:21;;;;;;;;;4.80;4.80;;;;;;;;5275668;27;8798;-74
2022/01/10 01:36:55;;;;;;;;;6.00;6.00;;;;;;;;5275619;27;8774;-74
2022/01/10 01:39:29;;;;;;;;;6.80;6.00;;;;;;;;5292702;27;8813;-73
2022/01/10 01:42:17;;;;;;;;;6.80;6.80;;;;;;;;5310955;27;8778;-74
2022/01/10 01:45:07;;;;;;;;;3.20;3.20;;;;;;;;5278399;27;8802;-73
2022/01/10 01:47:39;;;;;;;;;8.00;8.00;;;;;;;;5293143;27;8762;-72
2022/01/10 01:50:20;;;;;;;;;11.80;11.80;;;;;;;;5276933;27;8850;-73
2022/01/10 01:52:51;;;;;;;;;10.00;10.00;;;;;;;;5275588;27;8924;-77
2022/01/10 01:55:22;;;;;;;;;6.40;6.40;;;;;;;;5275867;27;8754;-76
2022/01/10 01:57:54;;;;;;;;;0.80;0.80;;;;;;;;5275427;27;8793;-78
2022/01/10 02:00:25;;;;;;;;;7.40;7.40;;;;;;;;5259210;27;8773;-76
2022/01/10 02:02:58;;;;;;;;;4.00;4.00;;;;;;;;5292270;27;8774;-75
2022/01/10 02:05:32;;;;;;;;;3.00;3.00;;;;;;;;5292907;27;8793;-77
2022/01/10 02:08:04;;;;;;;;;1.80;1.80;;;;;;;;5258889;27;8763;-79
2022/01/10 02:10:36;;;;;;;;;4.00;4.00;;;;;;;;5292568;27;8903;-77
2022/01/10 02:13:07;;;;;;;;;4.80;4.80;;;;;;;;5275469;27;8989;-77
2022/01/10 02:18:16;;;;;;;;;4.00;4.00;;;;;;;;5292340;27;8965;-77
2022/01/10 02:20:51;;;;;;;;;3.80;3.80;;;;;;;;5292230;27;8762;-75
2022/01/10 02:23:23;;;;;;;;;3.80;3.80;;;;;;;;5258635;27;8871;-74
2022/01/10 02:26:02;;;;;;;;;3.00;3.00;;;;;;;;5260172;27;9467;-76
2022/01/10 02:28:36;;;;;;;;;5.20;5.00;;;;;;;;5291593;27;8802;-76
2022/01/10 02:31:08;;;;;;;;;5.80;5.80;;;;;;;;5274721;27;8778;-76
2022/01/10 02:33:58;;;;;;;;;3.80;3.80;;;;;;;;5291673;27;8782;-75
2022/01/10 02:36:29;;;;;;;;;5.60;4.00;;;;;;;;5291671;27;8766;-73
2022/01/10 02:39:06;;;;;;;;;4.80;4.80;;;;;;;;5258335;27;8889;-73
2022/01/10 02:41:43;;;;;;;;;3.80;3.80;;;;;;;;5291442;27;8762;-75
2022/01/10 02:44:16;;;;;;;;;6.40;6.40;;;;;;;;5274579;27;8779;-73
2022/01/10 02:46:47;;;;;;;;;9.60;9.60;;;;;;;;5291935;27;8778;-75
2022/01/10 02:49:39;;;;;;;;;16.00;14.20;;;;;;;;5294561;27;8778;-77
2022/01/10 02:52:10;;;;;;;;;10.20;10.20;;;;;;;;5257677;27;8794;-76
2022/01/10 02:59:04;;;;;;;;;15.60;14.60;;;;;;;;5309726;27;8698;-76
2022/01/10 03:01:35;;;;;;;;;11.20;10.80;;;;;;;;5291581;27;8777;-75
2022/01/10 03:04:06;;;;;;;;;11.40;10.20;;;;;;;;5310435;27;8805;-78
2022/01/10 03:06:56;;;;;;;;;15.40;15.20;;;;;;;;5277119;27;8920;-77
2022/01/10 03:09:28;;;;;;;;;9.20;9.20;;;;;;;;5280113;27;8762;-77
2022/01/10 03:11:59;;;;;;;;;10.00;10.00;;;;;;;;5281660;27;8777;-77
2022/01/10 03:14:30;;;;;;;;;6.00;6.00;;;;;;;;5281605;27;8762;-77
2022/01/10 03:17:01;;;;;;;;;1.60;1.40;;;;;;;;5265150;27;9533;-76
2022/01/10 03:19:33;;;;;;;;;6.80;6.80;;;;;;;;5281307;27;8789;-76
2022/01/10 03:22:05;;;;;;;;;9.00;9.00;;;;;;;;5298476;27;8790;-76
2022/01/10 03:24:54;;;;;;;;;6.20;6.20;;;;;;;;5317235;27;8762;-75
2022/01/10 03:27:26;;;;;;;;;7.00;6.40;;;;;;;;5316478;27;8791;-76
2022/01/10 03:29:58;;;;;;;;;9.00;9.00;;;;;;;;5298291;27;8778;-76
2022/01/10 03:32:29;;;;;;;;;11.20;11.20;;;;;;;;5281634;27;8948;-77
2022/01/10 03:35:19;;;;;;;;;10.00;10.00;;;;;;;;5316606;27;8896;-76
2022/01/10 03:37:50;;;;;;;;;4.40;4.40;;;;;;;;5281446;27;8865;-77
2022/01/10 03:40:22;;;;;;;;;13.40;13.40;;;;;;;;5264542;27;8766;-75
2022/01/10 03:42:55;;;;;;;;;27.40;26.40;;;;;;;;5298024;27;8770;-76
2022/01/10 03:45:26;;;;;;;;;12.80;12.00;;;;;;;;5264278;27;8790;-76
2022/01/10 03:47:58;;;;;;;;;13.20;13.20;;;;;;;;5316287;27;8863;-78
2022/01/10 03:50:34;;;;;;;;;1.00;1.00;;;;;;;;5265125;27;8750;-78
2022/01/10 03:53:06;;;;;;;;;8.20;8.20;;;;;;;;5280855;27;8794;-79
2022/01/10 03:55:38;;;;;;;;;4.00;4.00;;;;;;;;5298141;27;8762;-76
2022/01/10 03:58:11;;;;;;;;;9.80;9.80;;;;;;;;5264428;27;8790;-73
2022/01/10 04:00:43;;;;;;;;;8.60;8.60;;;;;;;;5298324;27;8762;-78
2022/01/10 04:03:14;;;;;;;;;5.40;5.40;;;;;;;;5316521;27;8858;-75
2022/01/10 04:05:53;;;;;;;;;7.20;7.20;;;;;;;;5297699;27;8805;-75
2022/01/10 04:08:26;;;;;;;;;7.40;7.00;;;;;;;;5264522;27;8921;-75
2022/01/10 04:10:58;;;;;;;;;6.40;6.40;;;;;;;;5297788;27;9397;-76
2022/01/10 04:13:29;;;;;;;;;6.00;6.00;;;;;;;;5281047;27;8806;-76
2022/01/10 04:16:01;;;;;;;;;6.00;6.00;;;;;;;;5263651;27;8892;-76
2022/01/10 04:18:32;;;;;;;;;6.60;6.60;;;;;;;;5315849;27;8818;-76
2022/01/10 04:21:03;;;;;;;;;8.40;8.00;;;;;;;;5259486;27;8834;-75
2022/01/10 04:23:35;;;;;;;;;0.00;0.00;;;;;;;;5277429;27;8774;-75
2022/01/10 04:26:06;;;;;;;;;8.20;8.20;;;;;;;;5278135;27;9476;-76
2022/01/10 04:28:40;;;;;;;;;6.80;6.80;;;;;;;;5277406;27;8781;-76
2022/01/10 04:31:12;;;;;;;;;6.00;6.00;;;;;;;;5294152;27;9484;-76
2022/01/10 04:33:43;;;;;;;;;4.40;4.00;;;;;;;;5293816;27;8817;-74
2022/01/10 04:36:15;;;;;;;;;4.80;4.80;;;;;;;;5293698;27;8766;-75
2022/01/10 04:38:46;;;;;;;;;9.00;8.60;;;;;;;;5294204;27;8774;-74
2022/01/10 04:41:20;;;;;;;;;7.40;6.20;;;;;;;;5277447;27;8762;-75
2022/01/10 04:44:10;;;;;;;;;9.60;9.60;;;;;;;;5293487;27;8767;-73
2022/01/10 04:47:00;;;;;;;;;6.20;6.20;;;;;;;;5312415;27;8817;-73
2022/01/10 04:49:46;;;;;;;;;10.80;10.80;;;;;;;;5276602;27;8782;-73
2022/01/10 04:52:17;;;;;;;;;16.60;16.00;;;;;;;;5293453;27;8890;-74
2022/01/10 04:55:07;;;;;;;;;13.80;13.00;;;;;;;;5293669;27;8775;-73
2022/01/10 04:57:39;;;;;;;;;13.80;13.80;;;;;;;;5276652;27;8947;-74
2022/01/10 05:00:12;;;;;;;;;16.00;15.20;;;;;;;;5259968;27;8774;-73
2022/01/10 05:02:45;;;;;;;;;17.20;17.20;;;;;;;;5293323;27;8762;-74
2022/01/10 05:05:16;;;;;;;;;14.00;14.00;;;;;;;;5293250;27;8795;-71
2022/01/10 05:08:05;;;;;;;;;14.40;14.40;;;;;;;;5278783;27;8794;-74
2022/01/10 05:10:36;;;;;;;;;12.60;12.60;;;;;;;;5293082;27;9458;-75
2022/01/10 05:13:07;;;;;;;;;13.00;13.00;;;;;;;;5259273;27;9501;-74
2022/01/10 05:15:38;;;;;;;;;12.50;12.50;;;;;;;;5292881;27;8779;-73
2022/01/10 05:18:09;;;;;;;;;10.80;10.80;;;;;;;;5293178;27;8781;-74
2022/01/10 05:20:41;;;;;;;;;10.00;10.00;;;;;;;;5276381;27;8774;-73
2022/01/10 05:23:12;;;;;;;;;9.00;8.20;;;;;;;;5292922;27;9535;-73
2022/01/10 05:25:46;;;;;;;;;15.80;15.80;;;;;;;;5293185;27;8896;-88
2022/01/10 05:28:19;;;;;;;;;13.40;13.40;;;;;;;;5259751;27;8774;-82
2022/01/10 05:30:52;;;;;;;;;12.00;12.00;;;;;;;;5292862;27;8762;-77
2022/01/10 05:33:27;;;;;;;;;11.60;11.60;;;;;;;;5276918;27;8830;-73
2022/01/10 05:36:17;;;;;;;;;19.40;18.80;;;;;;;;5292836;27;8797;-72
2022/01/10 05:38:48;;;;;;;;;19.40;18.40;;;;;;;;5276108;27;8804;-68
2022/01/10 05:41:21;;;;;;;;;13.00;13.00;;;;;;;;5292959;27;8766;-74
2022/01/10 05:43:55;;;;;;;;;16.00;16.00;;;;;;;;5275652;27;8842;-73
2022/01/10 05:46:27;;;;;;;;;13.80;13.80;;;;;;;;5258710;27;8774;-73
2022/01/10 05:49:01;;;;;;;;;9.60;9.60;;;;;;;;5258736;27;9466;-76
2022/01/10 05:51:34;;;;;;;;;60.60;52.20;;;;;;;;5291898;27;8774;-72
2022/01/10 05:58:38;;;;;;;;;17.20;17.00;;;;;;;;5311241;27;8758;-72
2022/01/10 06:01:10;;;;;;;;;10.40;10.40;;;;;;;;5260507;27;8766;-72
2022/01/10 06:03:45;;;;;;;;;14.60;12.80;;;;;;;;5277194;27;9475;-73
2022/01/10 06:06:17;;;;;;;;;9.60;9.60;;;;;;;;5258487;27;8826;-71
2022/01/10 06:08:48;;;;;;;;;12.60;12.60;;;;;;;;5293203;27;8781;-70
2022/01/10 06:11:19;;;;;;;;;14.40;13.60;;;;;;;;5275592;27;9446;-73
2022/01/10 06:14:09;;;;;;;;;11.60;10.80;;;;;;;;5310521;27;8786;-73
2022/01/10 06:16:39;;;;;;;;;14.60;13.60;;;;;;;;5274978;27;8766;-70
2022/01/10 06:19:11;;;;;;;;;26.80;26.20;;;;;;;;5291606;27;8801;-71
2022/01/10 06:21:42;;;;;;;;;23.60;23.20;;;;;;;;5258739;27;8766;-73
2022/01/10 06:24:14;;;;;;;;;23.60;21.60;;;;;;;;5292341;27;8777;-72
2022/01/10 06:27:03;;;;;;;;;27.00;22.80;;;;;;;;5310671;27;8767;-74
2022/01/10 06:29:36;;;;;;;;;20.20;19.60;;;;;;;;5291745;27;8762;-71
2022/01/10 06:32:08;;;;;;;;;11.20;11.20;;;;;;;;5291603;27;8790;-71
2022/01/10 06:34:39;;;;;;;;;33.80;33.00;;;;;;;;5274964;27;8876;-72
2022/01/10 06:37:28;;;;;;;;;35.20;32.80;;;;;;;;5294386;27;8761;-72
2022/01/10 06:39:59;;;;;;;;;31.25;31.25;;;;;;;;5309382;27;8759;-71
2022/01/10 06:42:30;;;;;;;;;22.80;21.80;;;;;;;;5291007;27;9953;-72
2022/01/10 06:49:26;;;;;;;;;5.80;5.80;;;;;;;;5309773;27;8714;-74
2022/01/10 06:51:57;;;;;;;;;11.20;11.20;;;;;;;;5291820;27;8810;-75
2022/01/10 06:54:28;;;;;;;;;11.60;10.40;;;;;;;;5291390;27;8786;-77
2022/01/10 06:57:18;;;;;;;;;13.80;13.80;;;;;;;;5277128;27;8862;-72
2022/01/10 06:59:50;;;;;;;;;16.40;16.40;;;;;;;;5257733;27;9452;-75
2022/01/10 07:02:23;;;;;;;;;12.60;12.00;;;;;;;;5274517;27;8853;-71
2022/01/10 07:04:56;;;;;;;;;23.80;22.40;;;;;;;;5258004;27;8888;-73
2022/01/10 07:07:27;;;;;;;;;21.20;20.60;;;;;;;;5309870;27;8810;-72
2022/01/10 07:10:04;;;;;;;;;12.40;12.20;;;;;;;;5291271;27;8908;-75
2022/01/10 07:12:36;;;;;;;;;19.80;19.00;;;;;;;;5274735;27;8828;-72
2022/01/10 07:15:12;;;;;;;;;15.60;12.60;;;;;;;;5274830;27;8767;-74
2022/01/10 07:17:44;;;;;;;;;16.40;16.20;;;;;;;;5274364;27;9442;-78
2022/01/10 07:20:17;;;;;;;;;5.20;5.20;;;;;;;;5258065;27;8851;-76
2022/01/10 07:22:49;;;;;;;;;8.00;8.00;;;;;;;;5257389;27;8859;-73
2022/01/10 07:25:20;;;;;;;;;26.00;25.75;;;;;;;;5274328;27;8770;-73
2022/01/10 07:27:52;;;;;;;;;32.80;32.00;;;;;;;;5257960;27;8801;-74
2022/01/10 07:30:23;;;;;;;;;21.00;20.60;;;;;;;;5274143;27;8775;-73
2022/01/10 07:32:54;;;;;;;;;17.80;17.80;;;;;;;;5309888;27;9023;-73
2022/01/10 07:35:25;;;;;;;;;14.50;13.00;;;;;;;;5274724;27;8901;-72
2022/01/10 07:37:56;;;;;;;;;22.75;19.00;;;;;;;;5309164;27;8762;-74
2022/01/10 07:40:27;;;;;;;;;13.00;13.00;;;;;;;;5273661;27;9200;-74
2022/01/10 07:42:58;;;;;;;;;12.00;12.00;;;;;;;;5257539;27;8870;-73
2022/01/10 07:45:41;;;;;;;;;16.60;14.60;;;;;;;;5275737;27;8936;-73
2022/01/10 07:48:33;;;;;;;;;19.80;19.80;;;;;;;;5290755;27;8917;-74
2022/01/10 07:51:08;;;;;;;;;27.20;27.20;;;;;;;;5274041;27;8881;-74
2022/01/10 07:53:40;;;;;;;;;21.40;21.40;;;;;;;;5290602;27;8802;-73
2022/01/10 07:56:11;;;;;;;;;29.00;27.60;;;;;;;;5277231;27;8839;-73
2022/01/10 07:58:43;;;;;;;;;15.60;15.60;;;;;;;;5261561;27;8766;-74
2022/01/10 08:01:32;;;;;;;;;15.80;15.40;;;;;;;;5313040;27;8755;-73
2022/01/10 08:04:03;;;;;;;;;15.25;15.25;;;;;;;;5277294;27;8904;-74
2022/01/10 08:06:34;;;;;;;;;18.00;18.00;;;;;;;;5278133;27;8798;-73
2022/01/10 08:09:06;;;;;;;;;10.50;10.50;;;;;;;;5294897;27;8789;-73
2022/01/10 08:11:37;;;;;;;;;40.80;36.80;;;;;;;;5277798;27;8762;-74
2022/01/10 08:14:12;;;;;;;;;34.75;34.75;;;;;;;;5313367;27;8840;-73
2022/01/10 08:16:43;;;;;;;;;33.40;29.20;;;;;;;;5295649;27;9425;-73
2022/01/10 08:19:14;;;;;;;;;32.25;30.75;;;;;;;;5295226;27;8766;-74
2022/01/10 08:21:44;;;;;;;;;25.00;23.75;;;;;;;;5295098;27;8779;-71
2022/01/10 08:28:39;;;;;;;;;25.00;23.60;;;;;;;;5312453;27;8699;-73
2022/01/10 08:31:10;;;;;;;;;21.60;19.80;;;;;;;;5294093;27;9509;-73
2022/01/10 08:33:41;;;;;;;;;19.00;19.00;;;;;;;;5276367;27;8830;-74
2022/01/10 08:36:13;;;;;;;;;10.00;10.00;;;;;;;;5293945;27;9591;-74
2022/01/10 08:38:43;;;;;;;;;16.40;15.20;;;;;;;;5276855;27;8782;-73
2022/01/10 08:41:14;;;;;;;;;24.00;21.25;;;;;;;;5293923;27;8774;-73
2022/01/10 08:43:45;;;;;;;;;29.00;27.50;;;;;;;;5312340;27;8859;-72
2022/01/10 08:46:16;;;;;;;;;24.75;23.75;;;;;;;;5312529;27;8787;-73
2022/01/10 08:48:47;;;;;;;;;14.50;14.50;;;;;;;;5293815;27;8774;-72
2022/01/10 08:51:36;;;;;;;;;20.60;20.00;;;;;;;;5279543;27;8840;-73
2022/01/10 08:54:07;;;;;;;;;28.20;27.60;;;;;;;;5276612;27;8818;-74
2022/01/10 08:56:40;;;;;;;;;21.60;20.40;;;;;;;;5312681;27;8821;-74
2022/01/10 08:59:10;;;;;;;;;21.40;20.60;;;;;;;;5312208;27;8846;-73
2022/01/10 09:01:42;;;;;;;;;21.50;21.00;;;;;;;;5277034;27;8778;-73
2022/01/10 09:04:16;;;;;;;;;20.40;20.20;;;;;;;;5312285;27;8782;-73
2022/01/10 09:06:47;;;;;;;;;24.20;22.00;;;;;;;;5292889;27;8799;-74
2022/01/10 09:09:19;;;;;;;;;25.20;24.60;;;;;;;;5293581;27;8801;-73
2022/01/10 09:11:49;;;;;;;;;24.80;24.80;;;;;;;;5311521;27;8755;-73
2022/01/10 09:14:21;;;;;;;;;21.50;18.75;;;;;;;;5312237;27;8887;-74
2022/01/10 09:16:51;;;;;;;;;24.20;24.20;;;;;;;;5312136;27;8790;-74
2022/01/10 09:19:22;;;;;;;;;22.25;22.25;;;;;;;;5258570;27;8793;-73
2022/01/10 09:21:53;;;;;;;;;21.40;17.60;;;;;;;;5311147;27;10804;-73
2022/01/10 09:24:24;;;;;;;;;42.80;37.80;;;;;;;;5311683;27;8787;-73
2022/01/10 09:26:56;;;;;;;;;25.20;25.00;;;;;;;;5293726;27;8782;-74
2022/01/10 09:29:27;;;;;;;;;22.00;22.00;;;;;;;;5311294;27;9446;-73
2022/01/10 09:31:58;;;;;;;;;26.00;26.00;;;;;;;;5292904;27;8808;-73
2022/01/10 09:34:28;;;;;;;;;17.00;12.75;;;;;;;;5311356;27;8818;-73
2022/01/10 09:36:59;;;;;;;;;30.00;28.50;;;;;;;;5311588;27;8782;-75
2022/01/10 09:39:30;;;;;;;;;27.00;23.00;;;;;;;;5292619;27;8786;-75
2022/01/10 09:42:01;;;;;;;;;22.50;22.50;;;;;;;;5293121;27;11416;-74
2022/01/10 09:44:34;;;;;;;;;18.60;18.60;;;;;;;;5292675;27;8802;-75
2022/01/10 09:47:23;;;;;;;;;20.20;20.20;;;;;;;;5278854;27;8889;-73
2022/01/10 09:49:54;;;;;;;;;27.25;24.00;;;;;;;;5275753;27;8904;-74
2022/01/10 09:52:27;;;;;;;;;18.50;18.00;;;;;;;;5292470;27;8812;-74
2022/01/10 09:54:58;;;;;;;;;21.00;20.00;;;;;;;;5293072;27;9008;-75
2022/01/10 09:57:29;;;;;;;;;23.50;22.00;;;;;;;;5275342;27;9542;-74
2022/01/10 10:00:00;;;;;;;;;19.00;17.00;;;;;;;;5310396;27;8786;-75
2022/01/10 10:02:50;;;;;;;;;16.80;16.00;;;;;;;;5295318;27;12114;-73
2022/01/10 10:05:21;;;;;;;;;18.80;18.80;;;;;;;;5292591;27;8766;-74
2022/01/10 10:07:52;;;;;;;;;19.00;19.00;;;;;;;;5275158;27;8894;-73
2022/01/10 10:10:27;;;;;;;;;27.80;27.80;;;;;;;;5292385;27;8784;-73
2022/01/10 10:12:57;;;;;;;;;29.20;26.60;;;;;;;;5310220;27;8826;-74
2022/01/10 10:15:31;;;;;;;;;25.00;25.00;;;;;;;;5292371;27;8770;-73
2022/01/10 10:18:03;;;;;;;;;21.00;21.00;;;;;;;;5290967;27;8766;-73
2022/01/10 10:20:34;;;;;;;;;28.00;27.40;;;;;;;;5310570;27;8777;-72
2022/01/10 10:23:24;;;;;;;;;22.40;21.40;;;;;;;;5292105;27;8758;-74
2022/01/10 10:25:55;;;;;;;;;26.00;21.75;;;;;;;;5258097;27;8847;-71
2022/01/10 10:28:25;;;;;;;;;27.80;27.80;;;;;;;;5310321;27;8843;-73
2022/01/10 10:30:57;;;;;;;;;17.25;17.25;;;;;;;;5292325;27;8755;-74
2022/01/10 10:33:28;;;;;;;;;35.40;31.80;;;;;;;;5310176;27;8875;-73
2022/01/10 10:36:03;;;;;;;;;128.00;91.67;;;;;;;;5291761;27;8766;-73
2022/01/10 10:38:55;;;;;;;;;27.00;24.80;;;;;;;;5294574;27;9477;-74
2022/01/10 10:41:26;;;;;;;;;24.00;24.00;;;;;;;;5258158;27;8765;-75
2022/01/10 10:43:56;;;;;;;;;18.25;18.25;;;;;;;;5291286;27;9455;-74
2022/01/10 10:46:28;;;;;;;;;16.00;15.50;;;;;;;;5309720;27;8809;-75
2022/01/10 10:49:03;;;;;;;;;24.60;19.80;;;;;;;;5291951;27;8786;-74
2022/01/10 10:51:35;;;;;;;;;27.00;25.60;;;;;;;;5291706;27;8773;-75
2022/01/10 10:54:08;;;;;;;;;25.00;24.60;;;;;;;;5274357;27;8879;-75
2022/01/10 10:56:41;;;;;;;;;30.00;29.20;;;;;;;;5310697;27;8773;-75
2022/01/10 10:59:12;;;;;;;;;16.00;15.80;;;;;;;;5310607;27;8921;-74
2022/01/10 11:01:43;;;;;;;;;22.00;21.25;;;;;;;;5309603;27;8884;-75
2022/01/10 11:04:14;;;;;;;;;26.25;24.50;;;;;;;;5309455;27;9249;-74
2022/01/10 11:06:45;;;;;;;;;21.00;21.00;;;;;;;;5309710;27;11398;-76
2022/01/10 11:09:16;;;;;;;;;33.60;30.40;;;;;;;;5257454;27;8763;-75
2022/01/10 11:12:06;;;;;;;;;115.75;86.25;;;;;;;;5309582;27;8795;-75
2022/01/10 11:14:37;;;;;;;;;42.75;39.50;;;;;;;;5290934;27;8779;-74
2022/01/10 11:17:15;;;;;;;;;25.00;24.00;;;;;;;;5257347;27;9645;-74
2022/01/10 11:20:05;;;;;;;;;31.60;31.20;;;;;;;;5274565;27;8786;-73
2022/01/10 11:22:40;;;;;;;;;30.80;29.60;;;;;;;;5291588;27;8758;-74
2022/01/10 11:25:26;;;;;;;;;28.60;28.60;;;;;;;;5290980;27;9485;-71
2022/01/10 11:28:00;;;;;;;;;32.00;31.00;;;;;;;;5291383;27;8766;-72
2022/01/10 11:35:03;;;;;;;;;11.60;11.60;;;;;;;;5313603;27;8771;-73
2022/01/10 11:37:35;;;;;;;;;23.80;23.80;;;;;;;;5313799;27;8800;-73
2022/01/10 11:40:07;;;;;;;;;26.80;23.80;;;;;;;;5278335;27;8775;-73
2022/01/10 11:42:44;;;;;;;;;21.40;21.40;;;;;;;;5278404;27;8794;-74
2022/01/10 11:45:15;;;;;;;;;22.00;18.80;;;;;;;;5278306;27;8790;-72
2022/01/10 11:48:02;;;;;;;;;27.40;22.80;;;;;;;;5294395;27;8807;-75
2022/01/10 11:50:33;;;;;;;;;24.00;23.80;;;;;;;;5314015;27;8782;-75
2022/01/10 11:53:04;;;;;;;;;26.20;25.00;;;;;;;;5295173;27;8821;-76
2022/01/10 12:00:08;;;;;;;;;21.60;21.60;;;;;;;;5313162;27;9486;-76
2022/01/10 12:02:41;;;;;;;;;22.60;22.00;;;;;;;;5313895;27;8805;-77
2022/01/10 12:05:12;;;;;;;;;24.40;22.80;;;;;;;;5294916;27;8786;-73
2022/01/10 12:07:45;;;;;;;;;33.00;32.50;;;;;;;;5294943;27;8810;-76
2022/01/10 12:10:18;;;;;;;;;24.20;24.20;;;;;;;;5295623;27;11493;-73
2022/01/10 12:12:54;;;;;;;;;24.40;23.80;;;;;;;;5295132;27;8797;-76
2022/01/10 12:15:29;;;;;;;;;25.40;22.60;;;;;;;;5295740;27;8791;-77
2022/01/10 12:18:00;;;;;;;;;28.40;28.40;;;;;;;;5278721;27;8792;-74
2022/01/10 12:20:52;;;;;;;;;20.80;20.60;;;;;;;;5297778;27;8782;-73
2022/01/10 12:23:23;;;;;;;;;23.20;22.20;;;;;;;;5312513;27;8862;-76
2022/01/10 12:25:54;;;;;;;;;24.25;24.25;;;;;;;;5294167;27;8791;-75
2022/01/10 12:28:27;;;;;;;;;20.50;19.50;;;;;;;;5313072;27;8775;-75
2022/01/10 12:31:02;;;;;;;;;24.40;24.40;;;;;;;;5294242;27;8774;-74
2022/01/10 12:33:33;;;;;;;;;21.80;20.60;;;;;;;;5312342;27;9465;-71
2022/01/10 12:36:05;;;;;;;;;21.25;20.75;;;;;;;;5312593;27;8889;-74
2022/01/10 12:38:39;;;;;;;;;23.60;22.80;;;;;;;;5287754;27;11610;-77
2022/01/10 12:41:10;;;;;;;;;19.80;19.00;;;;;;;;5292844;27;8779;-74
2022/01/10 12:48:15;;;;;;;;;13.80;13.80;;;;;;;;5309362;27;9588;-77
2022/01/10 12:50:48;;;;;;;;;15.00;15.00;;;;;;;;5291401;28;8782;-75
2022/01/10 12:53:21;;;;;;;;;70.20;50.20;;;;;;;;5289690;28;8833;-75
2022/01/10 12:55:52;;;;;;;;;36.80;36.00;;;;;;;;5290441;28;8797;-72
2022/01/10 12:58:23;;;;;;;;;25.50;24.75;;;;;;;;5290830;28;9438;-76
2022/01/10 13:05:17;;;;;;;;;26.80;25.80;;;;;;;;5290374;28;8698;-74
2022/01/10 13:07:50;;;;;;;;;26.00;24.20;;;;;;;;5310340;27;8896;-76
2022/01/10 13:10:31;;;;;;;;;18.60;18.40;;;;;;;;5293593;27;8772;-76
2022/01/10 13:13:02;;;;;;;;;27.60;25.80;;;;;;;;5276454;27;8806;-77
2022/01/10 13:15:35;;;;;;;;;64.40;51.80;;;;;;;;5293265;27;8799;-76
2022/01/10 13:18:08;;;;;;;;;21.60;21.60;;;;;;;;5293236;27;8744;-75
2022/01/10 13:20:39;;;;;;;;;29.20;28.80;;;;;;;;5293317;27;8775;-72
2022/01/10 13:23:11;;;;;;;;;35.75;30.75;;;;;;;;5311447;27;8776;-73
2022/01/10 13:25:46;;;;;;;;;31.00;30.00;;;;;;;;5259006;27;8768;-72
2022/01/10 13:28:19;;;;;;;;;22.00;22.00;;;;;;;;5293105;27;8882;-73
2022/01/10 13:30:55;;;;;;;;;28.00;28.00;;;;;;;;5293227;27;8911;-74
2022/01/10 13:33:44;;;;;;;;;115.00;87.33;;;;;;;;5292812;27;8883;-70
2022/01/10 13:36:15;;;;;;;;;38.80;33.20;;;;;;;;5293111;27;9539;-71
2022/01/10 13:38:49;;;;;;;;;34.60;34.40;;;;;;;;5276613;27;8813;-76
2022/01/10 13:41:20;;;;;;;;;29.00;27.40;;;;;;;;5292732;27;8775;-75
2022/01/10 13:43:50;;;;;;;;;30.00;27.40;;;;;;;;5275918;27;8787;-75
2022/01/10 13:46:21;;;;;;;;;22.75;21.00;;;;;;;;5311833;27;8912;-73
2022/01/10 13:48:57;;;;;;;;;12.00;12.00;;;;;;;;5292451;27;8852;-77
2022/01/10 13:51:29;;;;;;;;;28.20;27.80;;;;;;;;5276102;27;11381;-78
2022/01/10 13:54:03;;;;;;;;;28.20;27.20;;;;;;;;5276052;27;8791;-77
2022/01/10 13:56:35;;;;;;;;;28.20;28.20;;;;;;;;5292693;27;8824;-77
2022/01/10 14:03:32;;;;;;;;;30.60;26.60;;;;;;;;5310726;27;8700;-77
2022/01/10 14:06:04;;;;;;;;;34.60;30.00;;;;;;;;5258451;27;8779;-76
2022/01/10 14:08:36;;;;;;;;;34.80;33.00;;;;;;;;5292442;27;9442;-78
2022/01/10 14:11:08;;;;;;;;;33.00;29.20;;;;;;;;5292540;27;8748;-76
2022/01/10 14:13:39;;;;;;;;;28.00;28.00;;;;;;;;5292678;27;8819;-75
2022/01/10 14:16:10;;;;;;;;;27.40;27.40;;;;;;;;5291970;27;8827;-76
2022/01/10 14:18:42;;;;;;;;;24.60;24.60;;;;;;;;5311023;27;8768;-77
2022/01/10 14:21:14;;;;;;;;;20.60;16.40;;;;;;;;5292501;27;8772;-76
2022/01/10 14:23:45;;;;;;;;;19.80;19.60;;;;;;;;5275139;27;8775;-76
2022/01/10 14:26:16;;;;;;;;;27.00;27.00;;;;;;;;5291911;27;8832;-77
2022/01/10 14:28:48;;;;;;;;;30.20;29.20;;;;;;;;5310406;27;11390;-77
2022/01/10 14:31:20;;;;;;;;;30.00;28.60;;;;;;;;5291989;27;9526;-77
2022/01/10 14:33:51;;;;;;;;;35.40;32.40;;;;;;;;5293144;27;9485;-77
2022/01/10 14:36:22;;;;;;;;;37.80;34.40;;;;;;;;5275779;27;8779;-78
2022/01/10 14:39:12;;;;;;;;;29.80;27.60;;;;;;;;5293100;27;9455;-76
2022/01/10 14:41:43;;;;;;;;;51.40;40.20;;;;;;;;5292783;27;8779;-78
2022/01/10 14:44:18;;;;;;;;;40.00;36.60;;;;;;;;5292866;27;8779;-75
2022/01/10 14:51:20;;;;;;;;;52.60;45.40;;;;;;;;5312023;27;8798;-74
2022/01/10 14:54:10;;;;;;;;;51.20;45.20;;;;;;;;5296530;27;8819;-73
2022/01/10 14:56:40;;;;;;;;;115.33;85.67;;;;;;;;5292414;27;8792;-72
2022/01/10 14:59:11;;;;;;;;;42.50;42.25;;;;;;;;5275292;27;8983;-74
2022/01/10 15:01:42;;;;;;;;;32.25;29.00;;;;;;;;5292606;27;8771;-70
2022/01/10 15:04:13;;;;;;;;;36.75;35.25;;;;;;;;5291888;27;11331;-73
2022/01/10 15:06:44;;;;;;;;;41.75;37.75;;;;;;;;5310739;27;8842;-74
2022/01/10 15:09:14;;;;;;;;;33.50;29.50;;;;;;;;5276100;27;8795;-73
2022/01/10 15:11:45;;;;;;;;;43.25;39.00;;;;;;;;5311160;27;8836;-74
2022/01/10 15:14:16;;;;;;;;;44.50;41.25;;;;;;;;5258611;27;8803;-73
2022/01/10 15:16:47;;;;;;;;;36.50;36.50;;;;;;;;5292563;27;8886;-73
2022/01/10 15:19:18;;;;;;;;;33.75;32.00;;;;;;;;5259850;27;9538;-73
2022/01/10 15:21:49;;;;;;;;;34.75;34.00;;;;;;;;5293554;27;8823;-76
2022/01/10 15:24:20;;;;;;;;;39.50;38.75;;;;;;;;5259839;27;10524;-76
2022/01/10 15:26:51;;;;;;;;;39.75;39.25;;;;;;;;5292962;27;8764;-70
2022/01/10 15:29:22;;;;;;;;;48.40;42.60;;;;;;;;5258503;27;9147;-71
2022/01/10 15:31:53;;;;;;;;;36.80;34.60;;;;;;;;5274030;27;8791;-70
2022/01/10 15:34:43;;;;;;;;;52.60;48.00;;;;;;;;5291312;27;8800;-69
2022/01/10 15:37:34;;;;;;;;;36.00;36.00;;;;;;;;5291137;27;8772;-72
2022/01/10 15:40:08;;;;;;;;;48.00;45.40;;;;;;;;5274407;27;8802;-69
2022/01/10 15:42:40;;;;;;;;;46.80;43.20;;;;;;;;5291603;27;8791;-76
2022/01/10 15:45:13;;;;;;;;;46.60;44.20;;;;;;;;5291256;27;8780;-76
2022/01/10 15:47:45;;;;;;;;;51.00;45.20;;;;;;;;5291647;27;8778;-75
2022/01/10 15:50:16;;;;;;;;;56.20;49.80;;;;;;;;5257882;27;8752;-74
2022/01/10 15:52:48;;;;;;;;;71.50;57.50;;;;;;;;5257599;27;8803;-72
2022/01/10 15:55:19;;;;;;;;;58.60;51.40;;;;;;;;5291615;27;10500;-73
2022/01/10 15:57:50;;;;;;;;;52.00;44.80;;;;;;;;5276450;27;8769;-75
2022/01/10 16:00:21;;;;;;;;;65.60;54.40;;;;;;;;5293262;27;8752;-74
2022/01/10 16:02:52;;;;;;;;;62.50;52.00;;;;;;;;5310434;27;8760;-74
2022/01/10 16:05:23;;;;;;;;;48.50;46.50;;;;;;;;5309188;27;8849;-73
2022/01/10 16:07:54;;;;;;;;;52.25;46.00;;;;;;;;5291111;27;9542;-74
2022/01/10 16:10:25;;;;;;;;;61.00;51.75;;;;;;;;5291108;27;12082;-73
2022/01/10 16:12:56;;;;;;;;;64.00;54.50;;;;;;;;5291102;27;9569;-74